NCAR-RAP Real-Time Weather Data

Output produced by METARs form (08 May 2021  02:14 UTC)
found at http://weather.rap.ucar.edu/surface/
 
KIDA 080153Z AUTO 21024G33KT 10SM FEW110 14/01 A2987 RMK AO2 PK WND 21033/0149 SLP086 T01390006
KIDA 080053Z AUTO 22017G26KT 10SM SCT080 OVC095 16/M01 A2987 RMK AO2 PK WND 25030/2356 SLP092 T01561011
KIDA 072353Z AUTO 25020G30KT 10SM SCT085 BKN110 17/M03 A2988 RMK AO2 PK WND 25035/2259 SLP096 T01671033 10233 20167 50006
KIDA 072253Z AUTO 26024G37KT 6SM HZ FEW015 BKN085 18/M02 A2988 RMK AO2 PK WND 26037/2243 SLP098 T01781017
KIDA 072153Z AUTO 25015G30KT 10SM SCT085 22/M01 A2986 RMK AO2 PK WND 21036/2121 SLP083 T02171006
KIDA 072053Z 24021G34KT 10SM CLR 22/00 A2985 RMK AO2 PK WND 20038/2032 SLP079 T02170000 55008
KIDA 071953Z 22026G38KT 10SM CLR 23/01 A2985 RMK AO2 PK WND 22039/1917 SLP073 T02330006
KIDA 071853Z 22019G31KT 10SM CLR 23/02 A2986 RMK AO2 PK WND 21035/1824 SLP078 T02280017
KIDA 071753Z 20014G27KT 10SM SCT090 OVC120 21/05 A2988 RMK AO2 PK WND 23031/1703 SLP084 T02060050 10206 20083 58003
KIDA 071653Z 21023G30KT 10SM OVC120 17/05 A2989 RMK AO2 PK WND 20035/1643 SLP092 T01670050
KIDA 071553Z 22024G30KT 10SM CLR 16/05 A2989 RMK AO2 PK WND 21031/1523 SLP084 T01610050
KIDA 071453Z 22021G33KT 10SM CLR 15/04 A2989 RMK AO2 PK WND 21033/1449 SLP082 T01500039 51015
KIDA 071353Z 20018G25KT 10SM SCT050 BKN100 16/02 A2987 RMK AO2 SLP075 T01560017